Time;durP1;ratioP1;P1;durP2;ratioP2;P2;SDS_P1;SDS_P2;PMS_P1;PMS_P2;Temp;Humidity;BMP_temperature;BMP_pressure;BME280_temperature;BME280_humidity;BME280_pressure;Samples;Min_cycle;Max_cycle;Signal;HPM_P1;HPM_P2
2022/12/25 00:02:13;;;;;;;3.63;1.10;;;9.00;99.90;;;;;;4899711;29;21417;-73
2022/12/25 00:04:39;;;;;;;2.67;1.25;;;9.00;99.90;;;;;;4906553;29;20032;-72
2022/12/25 00:07:05;;;;;;;3.45;1.10;;;8.90;99.90;;;;;;4899213;29;20036;-72
2022/12/25 00:09:30;;;;;;;3.65;1.52;;;8.80;99.90;;;;;;4901356;29;20463;-72
2022/12/25 00:11:56;;;;;;;3.83;1.33;;;8.70;99.90;;;;;;4904961;29;20652;-72
2022/12/25 00:14:21;;;;;;;2.90;1.27;;;8.60;99.90;;;;;;4904096;29;20048;-72
2022/12/25 00:16:47;;;;;;;2.67;1.10;;;8.60;99.90;;;;;;4902451;29;20046;-72
2022/12/25 00:19:13;;;;;;;4.45;1.00;;;8.50;99.90;;;;;;4901332;29;20490;-72
2022/12/25 00:21:38;;;;;;;3.95;1.30;;;8.40;99.90;;;;;;4907530;29;20032;-73
2022/12/25 00:24:04;;;;;;;3.85;1.33;;;8.50;99.90;;;;;;4907135;29;20813;-74
2022/12/25 00:26:30;;;;;;;2.70;1.00;;;8.60;99.90;;;;;;4911308;29;20040;-74
2022/12/25 00:28:57;;;;;;;2.92;1.10;;;8.60;99.90;;;;;;4904611;29;20035;-74
2022/12/25 00:31:23;;;;;;;4.55;1.17;;;8.50;99.90;;;;;;4902735;29;20142;-68
2022/12/25 00:33:50;;;;;;;2.80;1.08;;;8.60;99.90;;;;;;4890703;29;20052;-68
2022/12/25 00:36:20;;;;;;;3.88;1.23;;;8.60;99.90;;;;;;4906893;29;20040;-68
2022/12/25 00:38:46;;;;;;;2.15;0.73;;;8.60;99.90;;;;;;4909093;29;20138;-69
2022/12/25 00:42:17;;;;;;;3.97;1.25;;;8.70;99.90;;;;;;4908128;29;20115;-69
2022/12/25 00:44:04;;;;;;;4.00;1.05;;;8.70;99.90;;;;;;4909289;29;20058;-68
2022/12/25 00:46:29;;;;;;;4.03;1.10;;;8.70;99.90;;;;;;4895662;29;20070;-68
2022/12/25 00:48:58;;;;;;;2.25;0.98;;;8.60;99.90;;;;;;4884254;29;20044;-69
2022/12/25 00:51:24;;;;;;;2.40;0.90;;;8.40;99.90;;;;;;4882720;29;20043;-69
2022/12/25 00:53:50;;;;;;;3.70;1.02;;;8.40;99.90;;;;;;4886473;29;20040;-74
2022/12/25 00:56:16;;;;;;;55.88;29.83;;;8.30;99.90;;;;;;4887442;29;22883;-75
2022/12/25 00:58:41;;;;;;;30.92;17.95;;;8.40;99.90;;;;;;4886136;29;20127;-75
2022/12/25 01:01:09;;;;;;;17.02;9.15;;;8.50;99.90;;;;;;4877539;29;20055;-75
2022/12/25 01:03:35;;;;;;;8.15;4.50;;;8.60;99.90;;;;;;4884003;29;20057;-75
2022/12/25 01:06:03;;;;;;;4.15;1.40;;;8.50;99.90;;;;;;4887897;29;20052;-73
2022/12/25 01:08:31;;;;;;;4.50;1.20;;;8.40;99.90;;;;;;4882365;29;20040;-68
2022/12/25 01:11:03;;;;;;;2.80;0.98;;;8.40;99.90;;;;;;4883469;29;20041;-67
2022/12/25 01:13:30;;;;;;;3.42;1.02;;;8.20;99.90;;;;;;4886751;29;20677;-70
2022/12/25 01:15:55;;;;;;;7.20;1.65;;;8.10;99.90;;;;;;4882220;29;20044;-68
2022/12/25 01:18:23;;;;;;;3.10;0.98;;;8.30;99.90;;;;;;4878941;29;20068;-68
2022/12/25 01:20:50;;;;;;;3.13;1.20;;;8.40;99.90;;;;;;4881190;29;20036;-67
2022/12/25 01:23:16;;;;;;;3.30;1.38;;;8.60;99.90;;;;;;4887951;29;20706;-67
2022/12/25 01:25:41;;;;;;;5.93;2.60;;;8.60;99.90;;;;;;4884238;29;20079;-67
2022/12/25 01:28:07;;;;;;;4.03;1.30;;;8.70;99.90;;;;;;4879061;29;20773;-69
2022/12/25 01:30:34;;;;;;;2.75;1.08;;;8.70;99.90;;;;;;4883844;29;20120;-67
2022/12/25 01:32:59;;;;;;;2.45;1.52;;;8.70;99.90;;;;;;4879085;29;20047;-68
2022/12/25 01:35:25;;;;;;;3.63;1.98;;;8.70;99.90;;;;;;4882216;29;20036;-69
2022/12/25 01:37:51;;;;;;;2.58;1.60;;;8.70;99.90;;;;;;4888520;29;20040;-69
2022/12/25 01:40:17;;;;;;;4.70;2.35;;;8.60;99.90;;;;;;4877484;29;20498;-69
2022/12/25 01:42:43;;;;;;;3.47;2.13;;;8.50;99.90;;;;;;4877358;29;21737;-69
2022/12/25 01:45:20;;;;;;;7.93;2.42;;;8.40;99.90;;;;;;4862165;29;20048;-69
2022/12/25 01:47:46;;;;;;;6.32;2.20;;;8.50;99.90;;;;;;4882486;29;20088;-69
2022/12/25 01:50:12;;;;;;;4.10;2.22;;;8.50;99.90;;;;;;4876479;29;20036;-70
2022/12/25 01:52:37;;;;;;;5.38;2.70;;;8.60;99.90;;;;;;4885516;29;20489;-70
2022/12/25 01:55:04;;;;;;;4.88;2.20;;;8.60;99.90;;;;;;4888792;29;20070;-67
2022/12/25 01:57:33;;;;;;;3.70;2.08;;;8.60;99.90;;;;;;4883946;29;20036;-68
2022/12/25 02:00:00;;;;;;;5.05;2.40;;;8.70;99.90;;;;;;4886482;29;20132;-68
2022/12/25 02:02:27;;;;;;;8.60;4.55;;;8.70;99.90;;;;;;4888429;29;20668;-68
2022/12/25 02:04:59;;;;;;;5.93;2.60;;;8.70;99.90;;;;;;4886680;29;20048;-76
2022/12/25 02:07:27;;;;;;;5.53;2.38;;;8.70;99.90;;;;;;4887900;29;20063;-77
2022/12/25 02:09:53;;;;;;;4.18;2.45;;;8.80;99.90;;;;;;4894038;29;20032;-78
2022/12/25 02:12:28;;;;;;;5.28;2.30;;;8.80;99.90;;;;;;4889539;29;20036;-76
2022/12/25 02:14:57;;;;;;;5.60;2.30;;;8.90;99.90;;;;;;4881267;29;20048;-75
2022/12/25 02:17:53;;;;;;;4.63;2.17;;;8.90;99.90;;;;;;4885922;29;20375;-75
2022/12/25 02:20:28;;;;;;;2.92;1.63;;;8.90;99.90;;;;;;4888699;29;20050;-75
2022/12/25 02:23:07;;;;;;;5.18;1.50;;;8.80;99.90;;;;;;4887913;29;20048;-74
2022/12/25 02:25:39;;;;;;;4.50;1.88;;;8.80;99.90;;;;;;4888507;29;20040;-74
2022/12/25 02:28:27;;;;;;;4.72;1.90;;;8.80;99.90;;;;;;4885870;29;20443;-74
2022/12/25 02:31:07;;;;;;;3.20;1.80;;;8.90;99.90;;;;;;4884974;29;20040;-75
2022/12/25 02:34:03;;;;;;;5.47;2.00;;;8.80;99.90;;;;;;4886456;29;20036;-76
2022/12/25 02:36:34;;;;;;;4.97;1.73;;;8.80;99.90;;;;;;4886498;29;20536;-75
2022/12/25 02:41:49;;;;;;;7.07;2.15;;;8.80;99.90;;;;;;4879319;29;20076;-74
2022/12/25 03:07:06;;;;;;;3.20;2.00;;;8.90;99.90;;;;;;4905494;29;20069;-68
2022/12/25 03:12:54;;;;;;;3.30;1.60;;;8.90;99.90;;;;;;4905879;29;20083;-68
2022/12/25 03:18:10;;;;;;;2.80;1.50;;;8.80;99.90;;;;;;4908684;29;20070;-67
2022/12/25 03:28:56;;;;;;;3.22;1.65;;;8.70;99.90;;;;;;4907469;29;20046;-67
2022/12/25 03:31:36;;;;;;;3.85;2.00;;;8.80;99.90;;;;;;4905371;29;20047;-67
2022/12/25 04:38:01;;;;;;;5.57;1.98;;;8.50;99.90;;;;;;4912661;29;20083;-68
2022/12/25 04:40:27;;;;;;;3.80;1.80;;;8.50;99.90;;;;;;4907320;29;20048;-68
2022/12/25 04:42:52;;;;;;;3.55;1.63;;;8.50;99.90;;;;;;4906719;29;20040;-67
2022/12/25 04:45:18;;;;;;;2.67;1.63;;;8.50;99.90;;;;;;4902384;29;20051;-67
2022/12/25 04:47:44;;;;;;;3.42;2.13;;;8.50;99.90;;;;;;4887854;29;20049;-67
2022/12/25 04:50:10;;;;;;;3.42;2.13;;;8.40;99.90;;;;;;4885977;29;20583;-67
2022/12/25 04:52:37;;;;;;;3.03;1.95;;;8.30;99.90;;;;;;4877366;29;20070;-66
2022/12/25 04:55:04;;;;;;;5.57;2.30;;;8.30;99.90;;;;;;4871073;29;20108;-67
2022/12/25 04:57:29;;;;;;;4.68;1.98;;;8.30;99.90;;;;;;4885998;29;20056;-67
2022/12/25 04:59:55;;;;;;;3.03;1.67;;;8.30;99.90;;;;;;4880022;29;20063;-66
2022/12/25 05:02:21;;;;;;;7.13;2.10;;;8.30;99.90;;;;;;4884748;29;20098;-66
2022/12/25 05:04:46;;;;;;;3.72;2.00;;;8.30;99.90;;;;;;4881000;29;20052;-66
2022/12/25 05:07:12;;;;;;;2.15;1.80;;;8.30;99.90;;;;;;4885227;29;20051;-67
2022/12/25 05:09:40;;;;;;;5.55;2.08;;;8.30;99.90;;;;;;4888531;29;20048;-67
2022/12/25 05:12:07;;;;;;;4.43;2.35;;;8.30;99.90;;;;;;4888659;29;20040;-68
2022/12/25 05:14:32;;;;;;;5.07;2.65;;;8.30;99.90;;;;;;4883295;29;20044;-66
2022/12/25 05:16:58;;;;;;;6.90;2.55;;;8.30;99.90;;;;;;4882779;29;20063;-67
2022/12/25 05:19:24;;;;;;;4.93;2.47;;;8.30;99.90;;;;;;4883117;29;20698;-67
2022/12/25 05:21:49;;;;;;;4.05;2.45;;;8.30;99.90;;;;;;4884280;29;20260;-67
2022/12/25 05:24:15;;;;;;;5.95;2.30;;;8.30;99.90;;;;;;4884186;29;20059;-67
2022/12/25 05:26:41;;;;;;;4.68;2.42;;;8.20;99.90;;;;;;4884451;29;20163;-66
2022/12/25 05:29:06;;;;;;;5.15;2.20;;;8.20;99.90;;;;;;4884617;29;20044;-67
2022/12/25 05:31:32;;;;;;;4.45;2.08;;;8.10;99.90;;;;;;4885878;29;20041;-67
2022/12/25 05:33:58;;;;;;;5.65;2.20;;;8.20;99.90;;;;;;4883666;29;20075;-67
2022/12/25 05:36:23;;;;;;;3.92;1.88;;;8.20;99.90;;;;;;4885441;29;20143;-67
2022/12/25 05:38:50;;;;;;;4.72;2.20;;;8.20;99.90;;;;;;4885036;29;20754;-67
2022/12/25 05:41:15;;;;;;;5.45;2.55;;;8.20;99.90;;;;;;4887733;29;20127;-67
2022/12/25 05:43:41;;;;;;;4.43;2.10;;;8.20;99.90;;;;;;4877893;29;20134;-67
2022/12/25 05:46:08;;;;;;;5.80;2.13;;;8.30;99.90;;;;;;4888588;29;20383;-68
2022/12/25 05:48:36;;;;;;;4.60;2.33;;;8.30;99.90;;;;;;4905717;29;20040;-68
2022/12/25 05:51:13;;;;;;;6.40;2.65;;;8.30;99.90;;;;;;4905834;29;20102;-68
2022/12/25 05:53:41;;;;;;;3.55;2.20;;;8.20;99.90;;;;;;4904445;29;20032;-68
2022/12/25 05:56:08;;;;;;;12.50;7.30;;;8.10;99.90;;;;;;4902447;29;20036;-67
2022/12/25 05:58:36;;;;;;;9.23;3.97;;;8.10;99.90;;;;;;4902242;29;20042;-67
2022/12/25 06:01:02;;;;;;;4.35;2.75;;;8.00;99.90;;;;;;4902550;29;20493;-67
2022/12/25 06:03:28;;;;;;;6.03;3.85;;;7.90;99.90;;;;;;4899084;29;20032;-67
2022/12/25 06:05:54;;;;;;;8.10;5.38;;;7.80;99.90;;;;;;4899419;29;20095;-66
2022/12/25 06:08:20;;;;;;;7.13;3.72;;;7.80;99.90;;;;;;4899720;29;20044;-67
2022/12/25 06:10:46;;;;;;;5.53;3.38;;;7.80;99.90;;;;;;4896426;29;20040;-67
2022/12/25 06:13:12;;;;;;;5.75;2.55;;;7.80;99.90;;;;;;4896048;29;20039;-67
2022/12/25 06:15:39;;;;;;;4.43;2.47;;;7.60;99.90;;;;;;4893015;29;20071;-66
2022/12/25 06:18:05;;;;;;;6.57;3.58;;;7.40;99.90;;;;;;4897674;29;20129;-66
2022/12/25 06:20:31;;;;;;;3.30;2.28;;;7.20;99.90;;;;;;4898263;29;20063;-66
2022/12/25 06:22:57;;;;;;;5.63;3.42;;;6.80;99.90;;;;;;4902672;29;20036;-65
2022/12/25 06:25:23;;;;;;;5.53;2.95;;;6.70;99.90;;;;;;4901014;29;20386;-66
2022/12/25 06:27:49;;;;;;;6.43;3.50;;;6.70;99.90;;;;;;4902870;29;20054;-66
2022/12/25 06:30:15;;;;;;;4.93;2.80;;;6.60;99.90;;;;;;4900884;29;20032;-66
2022/12/25 06:32:40;;;;;;;3.83;2.60;;;6.60;99.90;;;;;;4902512;29;20044;-66
2022/12/25 06:35:06;;;;;;;6.13;2.47;;;6.60;99.90;;;;;;4903752;29;20043;-66
2022/12/25 06:37:32;;;;;;;9.85;3.58;;;6.50;99.90;;;;;;4897361;29;20044;-66
2022/12/25 06:39:58;;;;;;;5.40;2.72;;;6.60;99.90;;;;;;4899693;29;20149;-66
2022/12/25 06:42:23;;;;;;;6.72;2.92;;;6.60;99.90;;;;;;4899769;29;20066;-66
2022/12/25 06:44:49;;;;;;;4.47;2.83;;;6.60;99.90;;;;;;4900133;29;20720;-66
2022/12/25 06:47:16;;;;;;;8.48;3.88;;;6.60;99.90;;;;;;4901939;29;20044;-66
2022/12/25 06:49:41;;;;;;;6.03;4.43;;;6.70;99.90;;;;;;4900748;29;20531;-66
2022/12/25 06:52:07;;;;;;;7.07;4.05;;;6.80;99.90;;;;;;4901453;29;20051;-66
2022/12/25 06:54:33;;;;;;;6.93;4.15;;;6.80;99.90;;;;;;4898576;29;20094;-66
2022/12/25 06:56:58;;;;;;;8.35;4.57;;;6.80;99.90;;;;;;4895779;29;20146;-66
2022/12/25 06:59:24;;;;;;;7.15;2.97;;;6.70;99.90;;;;;;4900012;29;20055;-67
2022/12/25 07:01:53;;;;;;;4.90;2.55;;;6.70;99.90;;;;;;4896739;29;20887;-66
2022/12/25 07:04:31;;;;;;;7.35;3.20;;;6.50;99.90;;;;;;4887793;29;20138;-67
2022/12/25 07:06:58;;;;;;;3.80;1.90;;;6.20;99.90;;;;;;4891882;29;20040;-66
2022/12/25 07:09:24;;;;;;;3.70;2.40;;;6.10;99.90;;;;;;4902630;29;20088;-66
2022/12/25 07:11:49;;;;;;;4.72;2.38;;;6.10;99.90;;;;;;4899179;29;20090;-67
2022/12/25 07:14:20;;;;;;;3.80;2.17;;;6.10;99.90;;;;;;4901666;29;20521;-66
2022/12/25 07:16:46;;;;;;;5.00;2.67;;;6.10;99.90;;;;;;4903264;29;20040;-66
2022/12/25 07:19:12;;;;;;;11.75;7.22;;;6.10;99.90;;;;;;4901014;29;20051;-66
2022/12/25 07:21:38;;;;;;;8.35;4.45;;;6.10;99.90;;;;;;4886368;29;20040;-66
2022/12/25 07:24:04;;;;;;;12.13;3.70;;;6.30;99.90;;;;;;4900081;29;20134;-66
2022/12/25 07:26:30;;;;;;;8.80;4.53;;;6.40;99.90;;;;;;4903315;28;20867;-66
2022/12/25 07:28:55;;;;;;;9.10;5.03;;;6.50;99.90;;;;;;4900746;29;20035;-66
2022/12/25 07:31:21;;;;;;;11.90;7.57;;;6.60;99.90;;;;;;4902182;29;20429;-66
2022/12/25 07:33:47;;;;;;;17.90;10.63;;;6.80;99.90;;;;;;4906923;29;20040;-67
2022/12/25 07:36:14;;;;;;;13.57;7.60;;;7.00;99.90;;;;;;4909067;29;20122;-67
2022/12/25 07:38:42;;;;;;;18.23;9.02;;;7.10;99.90;;;;;;4907992;29;20042;-66
2022/12/25 07:41:09;;;;;;;18.65;9.02;;;7.10;99.90;;;;;;4906193;29;20067;-67
2022/12/25 07:43:35;;;;;;;15.85;8.38;;;7.10;99.90;;;;;;4904716;29;20028;-67
2022/12/25 07:46:01;;;;;;;17.17;8.63;;;7.10;99.90;;;;;;4908185;29;20038;-66
2022/12/25 07:48:27;;;;;;;14.77;8.82;;;7.20;99.90;;;;;;4883311;29;20070;-66
2022/12/25 07:51:06;;;;;;;12.38;7.80;;;7.20;99.90;;;;;;4889820;29;20501;-67
2022/12/25 07:53:32;;;;;;;11.90;7.00;;;7.30;99.90;;;;;;4887762;29;21000;-67
2022/12/25 07:56:04;;;;;;;10.85;5.63;;;7.40;99.90;;;;;;4889534;29;20048;-67
2022/12/25 07:58:31;;;;;;;6.85;3.72;;;7.60;99.90;;;;;;4886855;29;20811;-67
2022/12/25 08:01:03;;;;;;;6.70;3.42;;;7.60;99.90;;;;;;4883564;29;20284;-67
2022/12/25 08:03:28;;;;;;;;;;;7.60;99.90;;;;;;4888910;29;20040;-67
2022/12/25 08:05:59;;;;;;;5.93;3.65;;;7.60;99.90;;;;;;4887290;29;20566;-67
2022/12/25 08:08:25;;;;;;;5.00;3.10;;;7.50;99.90;;;;;;4888719;29;20048;-77
2022/12/25 08:10:50;;;;;;;5.50;3.20;;;7.60;99.90;;;;;;4889706;29;20071;-77
2022/12/25 08:13:16;;;;;;;7.95;4.15;;;7.70;99.90;;;;;;4887747;29;20426;-76
2022/12/25 08:15:42;;;;;;;10.05;4.30;;;7.70;99.90;;;;;;4882406;29;20040;-77
2022/12/25 08:18:08;;;;;;;12.68;5.45;;;7.80;99.90;;;;;;4885960;29;20135;-77
2022/12/25 08:20:34;;;;;;;9.85;5.47;;;7.70;99.90;;;;;;4885723;29;20594;-79
2022/12/25 08:22:59;;;;;;;11.70;5.80;;;7.80;99.90;;;;;;4889821;29;20377;-82
2022/12/25 08:25:25;;;;;;;8.75;5.05;;;7.80;99.90;;;;;;4890976;29;20041;-81
2022/12/25 08:27:51;;;;;;;17.67;4.50;;;7.80;99.90;;;;;;4884574;29;20040;-80
2022/12/25 08:30:17;;;;;;;7.38;4.35;;;7.90;99.90;;;;;;4889722;29;20060;-69
2022/12/25 08:32:42;;;;;;;7.07;5.00;;;8.00;99.90;;;;;;4886067;29;20433;-69
2022/12/25 08:35:08;;;;;;;9.38;5.13;;;8.10;99.90;;;;;;4887384;29;20043;-68
2022/12/25 08:37:34;;;;;;;10.50;5.50;;;8.10;99.90;;;;;;4886253;29;20036;-69
2022/12/25 08:39:59;;;;;;;17.25;5.63;;;8.20;99.90;;;;;;4886161;29;20466;-69
2022/12/25 08:42:25;;;;;;;8.63;5.35;;;8.30;99.90;;;;;;4888736;29;20035;-69
2022/12/25 08:44:51;;;;;;;7.13;5.03;;;8.40;99.90;;;;;;4886529;29;20131;-68
2022/12/25 08:47:16;;;;;;;9.93;5.07;;;8.30;99.90;;;;;;4895781;29;20056;-68
2022/12/25 08:49:42;;;;;;;8.75;4.82;;;8.30;99.90;;;;;;4903477;29;20577;-68
2022/12/25 08:52:08;;;;;;;7.70;4.90;;;8.40;99.90;;;;;;4909731;29;20052;-69
2022/12/25 08:54:35;;;;;;;7.97;4.85;;;8.50;99.90;;;;;;4907090;29;20039;-70
2022/12/25 08:57:01;;;;;;;6.18;4.70;;;8.50;99.90;;;;;;4903502;29;20046;-69
2022/12/25 08:59:27;;;;;;;6.57;4.60;;;8.50;99.90;;;;;;4898551;29;20047;-70
2022/12/25 09:01:52;;;;;;;10.30;5.03;;;8.60;99.90;;;;;;4908606;29;20050;-69
2022/12/25 09:04:18;;;;;;;12.55;7.38;;;8.70;99.90;;;;;;4908585;29;20670;-69
2022/12/25 09:06:44;;;;;;;20.17;10.35;;;8.70;99.90;;;;;;4904263;29;20035;-70
2022/12/25 09:09:09;;;;;;;27.75;11.90;;;8.70;99.90;;;;;;4907392;29;20039;-69
2022/12/25 09:11:35;;;;;;;15.23;9.10;;;8.80;99.90;;;;;;4907937;29;20579;-70
2022/12/25 09:14:01;;;;;;;14.05;7.57;;;8.80;99.90;;;;;;4909391;29;20404;-69
2022/12/25 09:16:26;;;;;;;13.82;8.25;;;8.90;99.90;;;;;;4905586;29;20517;-68
2022/12/25 09:18:54;;;;;;;10.85;6.55;;;8.90;99.90;;;;;;4887901;29;20059;-68
2022/12/25 09:21:19;;;;;;;10.63;6.15;;;8.90;99.90;;;;;;4907365;29;20031;-68
2022/12/25 09:23:45;;;;;;;10.13;6.75;;;8.90;99.90;;;;;;4904537;29;20051;-67
2022/12/25 09:26:13;;;;;;;16.52;6.40;;;8.90;99.90;;;;;;4906253;29;20035;-68
2022/12/25 09:28:39;;;;;;;11.85;5.97;;;9.00;99.90;;;;;;4907527;29;20044;-68
2022/12/25 09:31:06;;;;;;;9.25;5.97;;;9.10;99.90;;;;;;4904279;29;20032;-68
2022/12/25 09:33:31;;;;;;;8.75;5.85;;;9.20;99.90;;;;;;4906853;29;20036;-68
2022/12/25 09:35:59;;;;;;;11.20;6.22;;;9.20;99.90;;;;;;4900465;29;20050;-72
2022/12/25 09:38:25;;;;;;;9.32;5.68;;;9.30;99.90;;;;;;4906154;29;20036;-68
2022/12/25 09:41:26;;;;;;;8.50;5.53;;;9.30;99.90;;;;;;4907137;29;20059;-68
2022/12/25 09:44:08;;;;;;;14.45;7.80;;;9.40;99.90;;;;;;4873406;29;20052;-68
2022/12/25 09:46:45;;;;;;;9.27;5.15;;;9.40;99.90;;;;;;4898575;29;20044;-68
2022/12/25 09:49:37;;;;;;;9.80;4.55;;;9.50;99.90;;;;;;4886942;29;22276;-69
2022/12/25 09:52:17;;;;;;;;;;;9.60;99.90;;;;;;4887275;29;20051;-69
2022/12/25 09:55:04;;;;;;;13.43;8.02;;;9.70;99.90;;;;;;4887288;29;19915;-72
2022/12/25 09:57:31;;;;;;;15.18;9.32;;;9.80;99.90;;;;;;4887923;29;20051;-70
2022/12/25 09:59:57;;;;;;;24.52;15.27;;;10.00;99.90;;;;;;4890740;29;20139;-76
2022/12/25 10:02:47;;;;;;;43.15;29.17;;;10.10;99.90;;;;;;4888986;29;20040;-71
2022/12/25 10:05:24;;;;;;;47.47;29.70;;;10.40;99.90;;;;;;4887329;29;20123;-69
2022/12/25 10:08:08;;;;;;;24.00;16.27;;;10.60;99.90;;;;;;4879628;29;20044;-70
2022/12/25 10:10:45;;;;;;;17.10;9.25;;;10.70;99.90;;;;;;4886023;29;20068;-69
2022/12/25 10:13:29;;;;;;;19.30;8.95;;;10.80;99.90;;;;;;4888343;29;20037;-70
2022/12/25 10:16:13;;;;;;;10.38;6.45;;;10.90;99.90;;;;;;4892689;29;20044;-70
2022/12/25 10:19:03;;;;;;;13.90;7.03;;;11.00;99.90;;;;;;4884395;29;20544;-70
2022/12/25 10:21:30;;;;;;;11.38;6.68;;;11.10;99.90;;;;;;4893386;29;20068;-76
2022/12/25 10:24:25;;;;;;;10.00;6.00;;;11.20;99.90;;;;;;4877971;29;20051;-75
2022/12/25 10:26:54;;;;;;;7.55;5.18;;;11.30;99.90;;;;;;4884128;29;20073;-77
2022/12/25 10:29:20;;;;;;;11.18;5.57;;;11.40;99.90;;;;;;4879289;29;21239;-81
2022/12/25 10:31:48;;;;;;;8.90;5.25;;;11.50;99.90;;;;;;4889300;29;20051;-80
2022/12/25 10:34:15;;;;;;;13.93;6.40;;;11.60;99.90;;;;;;4886303;29;20095;-68
2022/12/25 10:36:44;;;;;;;13.10;6.22;;;11.70;99.90;;;;;;4892547;29;20456;-68
2022/12/25 10:39:18;;;;;;;8.45;5.78;;;12.20;99.90;;;;;;4893214;29;20054;-69
2022/12/25 10:42:03;;;;;;;11.00;6.55;;;12.60;99.90;;;;;;4892855;29;20028;-80
2022/12/25 10:44:31;;;;;;;6.43;4.30;;;12.90;99.90;;;;;;4891168;29;20040;-77
2022/12/25 10:46:58;;;;;;;12.23;6.03;;;12.70;99.90;;;;;;4901238;29;20065;-77
2022/12/25 10:49:29;;;;;;;10.05;6.18;;;12.50;99.90;;;;;;4913743;29;20062;-75
2022/12/25 10:51:54;;;;;;;10.18;6.15;;;12.30;99.90;;;;;;4913689;29;20028;-77
2022/12/25 10:54:34;;;;;;;10.23;5.85;;;12.10;99.90;;;;;;4911287;29;20055;-78
2022/12/25 10:57:09;;;;;;;8.63;5.10;;;11.90;99.90;;;;;;4912550;29;20414;-77
2022/12/25 10:59:42;;;;;;;8.73;5.35;;;11.80;99.90;;;;;;4911141;29;20056;-69
2022/12/25 11:02:14;;;;;;;7.88;4.80;;;11.60;99.90;;;;;;4909115;29;20103;-68
2022/12/25 11:04:40;;;;;;;10.13;5.88;;;11.60;99.90;;;;;;4903234;29;20047;-68
2022/12/25 11:07:14;;;;;;;17.73;11.65;;;11.40;99.90;;;;;;4910221;29;20161;-67
2022/12/25 11:09:39;;;;;;;9.07;6.55;;;11.40;99.90;;;;;;4914988;29;20036;-68
2022/12/25 11:12:06;;;;;;;36.08;29.60;;;11.30;99.90;;;;;;4906146;29;20128;-68
2022/12/25 11:14:31;;;;;;;18.83;13.98;;;11.30;99.90;;;;;;4902880;29;21297;-68
2022/12/25 11:17:08;;;;;;;8.50;4.97;;;11.30;99.90;;;;;;4910088;29;20047;-68
2022/12/25 11:19:33;;;;;;;11.40;9.20;;;11.30;99.90;;;;;;4911020;29;20048;-78
2022/12/25 11:22:02;;;;;;;10.07;7.10;;;11.30;99.90;;;;;;4891139;29;20637;-77
2022/12/25 11:24:32;;;;;;;10.90;6.25;;;11.30;99.90;;;;;;4915301;29;20048;-77
2022/12/25 11:27:01;;;;;;;7.78;5.72;;;11.30;99.90;;;;;;4920010;29;20035;-77
2022/12/25 11:29:42;;;;;;;7.88;5.40;;;11.30;99.90;;;;;;4914430;29;20027;-74
2022/12/25 11:32:19;;;;;;;9.55;5.38;;;11.30;99.90;;;;;;4892124;29;20052;-74
2022/12/25 11:34:47;;;;;;;7.03;6.13;;;11.40;99.90;;;;;;4912586;29;20043;-75
2022/12/25 11:37:47;;;;;;;9.07;5.72;;;11.40;99.90;;;;;;4908378;29;20055;-75
2022/12/25 11:40:14;;;;;;;7.85;4.75;;;11.50;99.90;;;;;;4896160;29;20369;-70
2022/12/25 11:42:44;;;;;;;9.55;6.47;;;11.40;99.90;;;;;;4914645;29;20067;-70
2022/12/25 11:45:12;;;;;;;8.73;6.20;;;11.40;99.90;;;;;;4915648;29;20040;-71
2022/12/25 11:47:43;;;;;;;10.77;6.55;;;11.50;99.90;;;;;;4904345;29;20056;-72
2022/12/25 11:50:22;;;;;;;15.53;10.63;;;11.50;99.90;;;;;;4892866;29;20587;-71
2022/12/25 11:52:49;;;;;;;9.20;5.63;;;11.50;99.90;;;;;;4883606;29;20044;-70
2022/12/25 11:55:20;;;;;;;10.77;6.28;;;11.50;99.90;;;;;;4886471;29;20051;-71
2022/12/25 11:57:53;;;;;;;7.35;5.10;;;11.40;99.90;;;;;;4864208;29;20198;-70
2022/12/25 12:00:20;;;;;;;5.18;3.45;;;11.50;99.90;;;;;;4886432;29;20084;-71
2022/12/25 12:02:51;;;;;;;6.60;4.53;;;11.50;99.90;;;;;;4885521;29;20139;-72
2022/12/25 12:05:28;;;;;;;7.80;4.93;;;11.50;99.90;;;;;;4889501;29;20040;-72
2022/12/25 12:08:00;;;;;;;4.95;3.47;;;11.60;99.90;;;;;;4898083;29;20060;-71
2022/12/25 12:10:38;;;;;;;5.25;3.40;;;11.60;99.90;;;;;;4890792;29;20036;-74
2022/12/25 12:13:19;;;;;;;8.95;7.05;;;11.60;99.90;;;;;;4898022;29;20040;-73
2022/12/25 12:15:46;;;;;;;6.32;4.20;;;11.70;99.90;;;;;;4892943;29;20044;-73
2022/12/25 12:18:24;;;;;;;6.55;4.57;;;11.70;99.90;;;;;;4894427;29;20040;-78
2022/12/25 12:21:10;;;;;;;7.13;3.35;;;11.80;99.90;;;;;;4896854;29;20056;-75
2022/12/25 12:24:04;;;;;;;4.47;3.20;;;11.80;99.90;;;;;;4892772;29;20099;-73
2022/12/25 12:26:36;;;;;;;7.38;4.20;;;11.90;99.90;;;;;;4878255;29;20062;-73
2022/12/25 12:29:05;;;;;;;6.47;3.72;;;11.90;99.90;;;;;;4894890;29;20055;-76
2022/12/25 12:31:44;;;;;;;8.43;5.70;;;11.90;99.90;;;;;;4896301;29;20152;-75
2022/12/25 12:34:22;;;;;;;7.70;3.72;;;11.90;99.90;;;;;;4889977;29;20774;-75
2022/12/25 12:36:49;;;;;;;7.10;3.42;;;12.00;99.90;;;;;;4897374;29;20819;-75
2022/12/25 12:39:26;;;;;;;11.00;7.20;;;12.00;99.90;;;;;;4893475;29;20055;-75
2022/12/25 12:41:52;;;;;;;22.15;12.57;;;12.00;99.90;;;;;;4898515;29;20040;-75
2022/12/25 12:44:21;;;;;;;8.90;5.40;;;12.00;99.90;;;;;;4891347;29;20549;-75
2022/12/25 12:46:55;;;;;;;21.27;14.65;;;12.10;99.90;;;;;;4892424;29;20482;-74
2022/12/25 12:49:31;;;;;;;8.85;4.95;;;12.20;99.90;;;;;;4896428;29;20040;-76
2022/12/25 12:52:31;;;;;;;4.85;3.20;;;12.20;99.90;;;;;;4904408;29;20044;-74
2022/12/25 12:55:08;;;;;;;5.10;2.85;;;12.10;99.90;;;;;;4873608;29;20775;-74
2022/12/25 12:57:38;;;;;;;7.97;3.20;;;12.10;99.90;;;;;;4903039;29;20052;-73
2022/12/25 13:00:28;;;;;;;4.13;3.10;;;12.20;99.90;;;;;;4902505;29;20052;-72
2022/12/25 13:03:24;;;;;;;8.70;3.15;;;12.20;99.90;;;;;;4891919;29;20040;-73
2022/12/25 13:05:51;;;;;;;5.32;3.90;;;12.10;99.90;;;;;;4883536;29;20040;-72
2022/12/25 13:08:38;;;;;;;6.68;3.10;;;12.10;99.90;;;;;;4884359;29;20990;-73
2022/12/25 13:11:14;;;;;;;10.77;5.50;;;12.10;99.90;;;;;;4889722;29;20047;-72
2022/12/25 13:13:43;;;;;;;6.82;3.25;;;12.10;99.90;;;;;;4886706;29;20036;-73
2022/12/25 13:16:34;;;;;;;8.77;3.20;;;12.10;99.90;;;;;;4891587;29;20044;-74
2022/12/25 13:19:04;;;;;;;4.57;3.03;;;12.10;99.90;;;;;;4887688;29;20474;-75
2022/12/25 13:21:31;;;;;;;6.72;2.92;;;12.10;99.90;;;;;;4887417;29;20040;-76
2022/12/25 13:24:01;;;;;;;7.60;2.90;;;12.00;99.90;;;;;;4864053;29;20617;-76
2022/12/25 13:26:28;;;;;;;6.15;2.80;;;12.10;99.90;;;;;;4886342;29;20502;-73
2022/12/25 13:28:54;;;;;;;5.07;2.78;;;12.10;99.90;;;;;;4885716;29;20050;-74
2022/12/25 13:31:26;;;;;;;5.25;2.65;;;12.20;99.90;;;;;;4890827;29;20035;-75
2022/12/25 13:33:59;;;;;;;4.50;2.50;;;12.10;99.90;;;;;;4905394;29;20035;-75
2022/12/25 13:36:28;;;;;;;14.00;3.25;;;12.00;99.90;;;;;;4887627;29;20036;-75
2022/12/25 13:38:56;;;;;;;7.60;3.10;;;12.00;99.90;;;;;;4905814;29;20067;-74
2022/12/25 13:44:38;;;;;;;6.65;2.95;;;11.90;99.90;;;;;;4905572;29;20631;-75
2022/12/25 13:47:33;;;;;;;8.52;3.20;;;11.90;99.90;;;;;;4909296;29;20059;-75
2022/12/25 13:50:12;;;;;;;6.32;2.95;;;12.00;99.90;;;;;;4918602;29;20040;-75
2022/12/25 13:52:38;;;;;;;5.53;2.90;;;11.90;99.90;;;;;;4925817;29;20504;-75
2022/12/25 13:55:10;;;;;;;8.20;3.47;;;11.90;99.90;;;;;;4926821;29;20095;-75
2022/12/25 13:57:42;;;;;;;5.68;2.88;;;11.90;99.90;;;;;;4919527;29;20096;-74
2022/12/25 14:00:36;;;;;;;5.97;2.88;;;11.80;99.90;;;;;;4926135;29;20055;-75
2022/12/25 14:03:06;;;;;;;9.23;3.75;;;11.80;99.90;;;;;;4908259;29;20658;-75
2022/12/25 14:05:34;;;;;;;7.72;4.10;;;11.80;99.90;;;;;;4923542;29;20140;-74
2022/12/25 14:08:03;;;;;;;6.65;3.30;;;11.80;99.90;;;;;;4922982;29;20035;-75
2022/12/25 14:10:36;;;;;;;5.82;3.03;;;11.80;99.90;;;;;;4923026;29;20063;-75
2022/12/25 14:13:05;;;;;;;7.90;3.42;;;11.70;99.90;;;;;;4922895;29;20035;-75
2022/12/25 14:15:32;;;;;;;6.82;3.67;;;11.70;99.90;;;;;;4922152;29;20489;-75
2022/12/25 14:17:58;;;;;;;5.68;3.20;;;11.70;99.90;;;;;;4922082;29;21151;-75
2022/12/25 14:20:36;;;;;;;6.25;3.58;;;11.80;99.90;;;;;;4923448;29;20386;-75
2022/12/25 14:23:04;;;;;;;5.05;3.10;;;11.80;99.90;;;;;;4923491;29;20484;-75
2022/12/25 14:25:34;;;;;;;6.78;2.80;;;11.80;99.90;;;;;;4923117;29;20039;-75
2022/12/25 14:28:06;;;;;;;2.88;2.33;;;11.80;99.90;;;;;;4921401;29;20416;-75
2022/12/25 14:30:32;;;;;;;;;;;11.70;99.90;;;;;;4921969;29;20029;-75
2022/12/25 14:32:58;;;;;;;8.50;3.05;;;11.60;99.90;;;;;;4921166;29;19973;-76
2022/12/25 14:35:24;;;;;;;6.68;2.90;;;11.60;99.90;;;;;;4921121;29;20040;-76
2022/12/25 14:37:55;;;;;;;4.75;2.47;;;11.50;99.90;;;;;;4920715;29;20401;-75
2022/12/25 14:40:34;;;;;;;6.88;2.90;;;11.40;99.90;;;;;;4908732;29;20146;-75
2022/12/25 14:43:25;;;;;;;4.72;2.80;;;11.40;99.90;;;;;;4923823;29;20111;-75
2022/12/25 14:46:21;;;;;;;7.63;4.03;;;11.40;99.90;;;;;;4919874;29;20042;-75
2022/12/25 14:48:58;;;;;;;9.63;5.28;;;11.30;99.90;;;;;;4924148;29;20047;-74
2022/12/25 14:51:23;;;;;;;13.43;7.65;;;11.30;99.90;;;;;;4913234;29;20562;-74
2022/12/25 14:53:54;;;;;;;20.10;13.75;;;11.30;99.90;;;;;;4921607;29;20042;-75